createdAt,value
2018-09-24T00:00:39.630Z,0.97
2018-09-24T00:03:07.004Z,0.90
2018-09-24T00:05:34.666Z,0.60
2018-09-24T00:08:02.041Z,0.90
2018-09-24T00:10:29.432Z,0.70
2018-09-24T00:12:56.824Z,0.63
2018-09-24T00:15:24.189Z,0.70
2018-09-24T00:17:51.565Z,0.90
2018-09-24T00:20:18.968Z,0.77
2018-09-24T00:22:46.337Z,0.90
2018-09-24T00:25:13.732Z,0.70
2018-09-24T00:27:41.140Z,1.27
2018-09-24T00:30:08.507Z,0.80
2018-09-24T00:32:35.872Z,0.80
2018-09-24T00:35:03.305Z,1.30
2018-09-24T00:37:30.699Z,1.00
2018-09-24T00:39:58.077Z,0.90
2018-09-24T00:42:25.483Z,1.40
2018-09-24T00:44:53.000Z,1.10
2018-09-24T00:47:20.380Z,0.80
2018-09-24T00:49:47.801Z,1.33
2018-09-24T00:52:15.231Z,1.03
2018-09-24T00:54:42.660Z,1.20
2018-09-24T00:57:10.047Z,1.73
2018-09-24T00:59:37.427Z,1.40
2018-09-24T01:02:04.838Z,1.40
2018-09-24T01:04:32.237Z,1.53
2018-09-24T01:06:59.626Z,0.90
2018-09-24T01:09:26.994Z,1.97
2018-09-24T01:11:54.414Z,1.03
2018-09-24T01:14:21.797Z,1.30
2018-09-24T01:16:49.165Z,1.40
2018-09-24T01:19:16.573Z,1.60
2018-09-24T01:21:43.946Z,1.40
2018-09-24T01:24:11.329Z,1.47
2018-09-24T01:26:38.741Z,1.70
2018-09-24T01:29:06.160Z,0.70
2018-09-24T01:31:33.543Z,1.20
2018-09-24T01:34:00.992Z,1.23
2018-09-24T01:36:28.351Z,1.23
2018-09-24T01:38:55.725Z,1.27
2018-09-24T01:41:23.114Z,1.50
2018-09-24T01:43:50.522Z,1.20
2018-09-24T01:46:17.929Z,1.13
2018-09-24T01:48:45.330Z,1.10
2018-09-24T01:51:12.702Z,0.77
2018-09-24T01:53:40.149Z,1.40
2018-09-24T01:56:07.617Z,1.17
2018-09-24T01:58:37.231Z,1.20
2018-09-24T02:01:04.608Z,1.20
2018-09-24T02:03:32.750Z,1.80
2018-09-24T02:06:00.208Z,1.77
2018-09-24T02:08:27.584Z,1.43
2018-09-24T02:10:55.027Z,1.53
2018-09-24T02:13:22.417Z,1.80
2018-09-24T02:15:49.832Z,2.00
2018-09-24T02:18:17.249Z,1.13
2018-09-24T02:20:44.878Z,1.73
2018-09-24T02:23:12.366Z,2.40
2018-09-24T02:25:39.822Z,1.30
2018-09-24T02:28:07.209Z,1.60
2018-09-24T02:30:34.595Z,2.10
2018-09-24T02:33:02.557Z,1.80
2018-09-24T02:35:30.017Z,2.10
2018-09-24T02:37:57.386Z,1.90
2018-09-24T02:40:25.164Z,2.63
2018-09-24T02:42:52.566Z,2.30
2018-09-24T02:45:20.282Z,2.83
2018-09-24T02:47:47.902Z,2.77
2018-09-24T02:50:15.304Z,2.40
2018-09-24T02:52:42.782Z,2.37
2018-09-24T02:55:13.474Z,2.40
2018-09-24T02:57:41.248Z,1.70
2018-09-24T03:00:08.621Z,2.60
2018-09-24T03:02:36.259Z,2.93
2018-09-24T03:05:03.830Z,2.83
2018-09-24T03:07:31.209Z,2.57
2018-09-24T03:09:58.625Z,1.83
2018-09-24T03:12:26.042Z,2.73
2018-09-24T03:14:53.406Z,2.40
2018-09-24T03:17:20.889Z,2.70
2018-09-24T03:19:48.287Z,2.93
2018-09-24T03:22:18.964Z,2.40
2018-09-24T03:24:46.350Z,2.20
2018-09-24T03:27:13.777Z,2.37
2018-09-24T03:29:41.137Z,1.80
2018-09-24T03:32:08.766Z,2.63
2018-09-24T03:34:37.072Z,3.80
2018-09-24T03:37:04.429Z,3.03
2018-09-24T03:39:31.835Z,1.77
2018-09-24T03:41:59.205Z,2.43
2018-09-24T03:44:26.588Z,2.87
2018-09-24T03:46:53.990Z,3.33
2018-09-24T03:49:21.369Z,3.10
2018-09-24T03:51:48.743Z,2.67
2018-09-24T03:54:16.167Z,2.33
2018-09-24T03:56:43.673Z,1.97
2018-09-24T03:59:11.041Z,2.33
2018-09-24T04:01:38.431Z,2.10
2018-09-24T04:04:11.238Z,1.63
2018-09-24T04:06:44.072Z,2.43
2018-09-24T04:09:16.729Z,3.30
2018-09-24T04:11:49.691Z,2.30
2018-09-24T04:14:22.493Z,2.20
2018-09-24T04:16:55.235Z,1.47
2018-09-24T04:19:27.876Z,3.07
2018-09-24T04:22:00.589Z,2.13
2018-09-24T04:24:33.437Z,1.67
2018-09-24T04:27:06.241Z,2.17
2018-09-24T04:29:38.874Z,1.80
2018-09-24T04:32:11.593Z,1.90
2018-09-24T04:34:44.285Z,2.20
2018-09-24T04:37:17.059Z,1.63
2018-09-24T04:39:50.005Z,2.20
2018-09-24T04:42:22.730Z,1.53
2018-09-24T04:44:55.457Z,2.33
2018-09-24T04:47:28.085Z,2.50
2018-09-24T04:50:00.829Z,1.90
2018-09-24T04:52:33.772Z,1.90
2018-09-24T04:55:06.621Z,2.77
2018-09-24T04:57:39.389Z,2.03
2018-09-24T05:00:12.352Z,3.47
2018-09-24T05:02:45.145Z,2.07
2018-09-24T05:05:17.829Z,2.40
2018-09-24T05:07:50.376Z,2.53
2018-09-24T05:10:23.202Z,2.90
2018-09-24T05:12:56.221Z,2.17
2018-09-24T05:15:28.984Z,2.93
2018-09-24T05:18:01.990Z,3.10
2018-09-24T05:20:34.838Z,2.33
2018-09-24T05:23:07.645Z,1.57
2018-09-24T05:25:40.609Z,1.93
2018-09-24T05:28:13.454Z,1.57
2018-09-24T05:30:46.527Z,2.47
2018-09-24T05:33:19.310Z,1.80
2018-09-24T05:35:52.132Z,1.40
2018-09-24T05:38:24.968Z,1.53
2018-09-24T05:40:57.797Z,2.00
2018-09-24T05:43:30.612Z,1.57
2018-09-24T05:48:47.525Z,2.20
2018-09-24T05:51:20.429Z,1.77
2018-09-24T05:53:53.289Z,2.23
2018-09-24T05:56:26.177Z,2.03
2018-09-24T05:58:59.105Z,2.03
2018-09-24T06:01:31.929Z,1.57
2018-09-24T06:04:04.758Z,2.10
2018-09-24T06:06:37.477Z,1.83
2018-09-24T06:09:12.501Z,1.43
2018-09-24T06:11:45.401Z,2.00
2018-09-24T06:14:18.009Z,1.53
2018-09-24T06:16:50.799Z,1.70
2018-09-24T06:19:23.514Z,1.90
2018-09-24T06:21:56.161Z,1.60
2018-09-24T06:24:28.897Z,2.00
2018-09-24T06:27:01.769Z,1.63
2018-09-24T06:29:34.779Z,1.50
2018-09-24T06:32:07.419Z,2.07
2018-09-24T06:34:40.349Z,1.87
2018-09-24T06:37:12.970Z,1.47
2018-09-24T06:39:45.723Z,1.43
2018-09-24T06:42:18.384Z,1.40
2018-09-24T06:44:51.136Z,2.13
2018-09-24T06:47:23.957Z,2.53
2018-09-24T06:49:56.737Z,2.30
2018-09-24T06:52:29.503Z,1.30
2018-09-24T06:55:02.339Z,1.70
2018-09-24T06:57:35.206Z,1.67
2018-09-24T07:00:08.241Z,1.53
2018-09-24T07:02:40.944Z,1.10
2018-09-24T07:05:13.661Z,1.97
2018-09-24T07:07:46.503Z,1.83
2018-09-24T07:10:19.401Z,2.43
2018-09-24T07:12:52.166Z,1.60
2018-09-24T07:15:24.926Z,1.80
2018-09-24T07:17:57.674Z,1.70
2018-09-24T07:20:30.545Z,2.10
2018-09-24T07:23:03.285Z,1.57
2018-09-24T07:25:36.116Z,1.73
2018-09-24T07:28:09.127Z,1.53
2018-09-24T07:30:41.979Z,1.43
2018-09-24T07:33:14.806Z,1.63
2018-09-24T07:35:47.645Z,1.20
2018-09-24T07:38:20.512Z,1.47
2018-09-24T07:40:53.356Z,2.10
2018-09-24T07:43:26.086Z,1.70
2018-09-24T07:45:58.985Z,1.70
2018-09-24T07:48:31.717Z,1.57
2018-09-24T07:51:04.560Z,1.30
2018-09-24T07:53:37.501Z,1.60
2018-09-24T07:56:10.315Z,0.97
2018-09-24T07:58:43.165Z,1.13
2018-09-24T08:01:15.882Z,1.87
2018-09-24T08:03:48.625Z,1.30
2018-09-24T08:06:21.401Z,1.10
2018-09-24T08:08:54.189Z,1.17
2018-09-24T08:11:26.998Z,1.20
2018-09-24T08:13:59.770Z,1.67
2018-09-24T08:16:32.502Z,1.23
2018-09-24T08:19:05.326Z,1.30
2018-09-24T08:21:38.049Z,1.30
2018-09-24T08:24:10.913Z,0.97
2018-09-24T08:26:43.721Z,0.80
2018-09-24T08:29:16.700Z,1.03
2018-09-24T08:31:49.484Z,1.20
2018-09-24T08:34:22.227Z,1.23
2018-09-24T08:36:54.949Z,1.30
2018-09-24T08:39:27.808Z,1.13
2018-09-24T08:42:00.678Z,1.00
2018-09-24T08:44:33.341Z,1.03
2018-09-24T08:47:06.180Z,1.80
2018-09-24T08:49:38.935Z,0.87
2018-09-24T08:52:11.793Z,1.23
2018-09-24T08:54:44.533Z,1.47
2018-09-24T08:57:17.495Z,1.23
2018-09-24T08:59:50.119Z,1.20
2018-09-24T09:02:22.960Z,1.20
2018-09-24T09:04:55.606Z,1.13
2018-09-24T09:07:28.618Z,1.30
2018-09-24T09:10:01.414Z,1.30
2018-09-24T09:12:34.236Z,1.30
2018-09-24T09:15:07.001Z,0.90
2018-09-24T09:17:39.819Z,1.20
2018-09-24T09:20:12.735Z,1.20
2018-09-24T09:22:45.610Z,0.97
2018-09-24T09:25:18.489Z,1.10
2018-09-24T09:27:51.301Z,0.80
2018-09-24T09:30:24.045Z,1.27
2018-09-24T09:32:57.001Z,1.47
2018-09-24T09:35:29.784Z,1.13
2018-09-24T09:38:02.837Z,1.03
2018-09-24T09:40:35.580Z,1.03
2018-09-24T09:43:08.384Z,1.70
2018-09-24T09:45:41.221Z,1.10
2018-09-24T09:48:14.014Z,1.27
2018-09-24T09:50:46.805Z,1.20
2018-09-24T09:53:21.546Z,0.97
2018-09-24T09:55:54.396Z,1.10
2018-09-24T09:58:27.280Z,1.30
2018-09-24T10:01:00.062Z,1.40
2018-09-24T10:03:33.196Z,1.27
2018-09-24T10:06:06.064Z,1.00
2018-09-24T10:08:38.901Z,1.10
2018-09-24T10:11:11.754Z,0.77
2018-09-24T10:13:44.621Z,1.00
2018-09-24T10:16:17.424Z,1.17
2018-09-24T10:18:50.257Z,1.27
2018-09-24T10:21:22.971Z,1.00
2018-09-24T10:23:55.718Z,1.30
2018-09-24T10:26:28.497Z,1.60
2018-09-24T10:29:01.338Z,1.00
2018-09-24T10:31:34.440Z,1.10
2018-09-24T10:34:07.267Z,1.23
2018-09-24T10:36:40.029Z,1.57
2018-09-24T10:39:13.599Z,1.00
2018-09-24T10:41:46.838Z,1.20
2018-09-24T10:44:19.684Z,1.90
2018-09-24T10:46:52.507Z,2.53
2018-09-24T10:49:25.542Z,1.10
2018-09-24T10:51:58.326Z,1.30
2018-09-24T10:54:31.159Z,1.30
2018-09-24T10:57:03.945Z,1.00
2018-09-24T10:59:37.089Z,0.97
2018-09-24T11:02:09.842Z,1.60
2018-09-24T11:04:42.630Z,1.67
2018-09-24T11:07:15.356Z,1.37
2018-09-24T11:09:48.437Z,0.90
2018-09-24T11:12:21.169Z,0.87
2018-09-24T11:14:54.236Z,1.07
2018-09-24T11:17:27.485Z,1.10
2018-09-24T11:20:00.140Z,1.10
2018-09-24T11:22:33.113Z,1.33
2018-09-24T11:25:05.879Z,0.90
2018-09-24T11:27:38.861Z,1.03
2018-09-24T11:30:11.663Z,1.37
2018-09-24T11:32:44.684Z,0.97
2018-09-24T11:35:17.529Z,1.30
2018-09-24T11:37:50.381Z,1.23
2018-09-24T11:40:23.048Z,1.10
2018-09-24T11:42:55.888Z,1.20
2018-09-24T11:45:28.760Z,1.10
2018-09-24T11:48:01.598Z,1.57
2018-09-24T11:50:34.433Z,0.90
2018-09-24T11:53:07.154Z,0.80
2018-09-24T11:55:40.249Z,0.90
2018-09-24T11:58:13.217Z,1.10
2018-09-24T12:00:46.057Z,0.80
2018-09-24T12:03:18.807Z,1.20
2018-09-24T12:05:51.620Z,1.10
2018-09-24T12:08:24.666Z,1.50
2018-09-24T12:10:57.486Z,1.10
2018-09-24T12:13:30.141Z,1.10
2018-09-24T12:16:02.962Z,1.40
2018-09-24T12:18:35.625Z,1.20
2018-09-24T12:21:08.394Z,1.23
2018-09-24T12:23:41.239Z,1.00
2018-09-24T12:26:14.395Z,1.00
2018-09-24T12:28:47.121Z,1.10
2018-09-24T12:31:19.916Z,1.40
2018-09-24T12:33:52.600Z,1.10
2018-09-24T12:36:25.255Z,1.30
2018-09-24T12:38:57.922Z,1.10
2018-09-24T12:41:30.770Z,1.30
2018-09-24T12:44:03.416Z,1.10
2018-09-24T12:46:36.443Z,1.50
2018-09-24T12:49:09.341Z,1.07
2018-09-24T12:51:42.204Z,0.90
2018-09-24T12:54:15.041Z,1.40
2018-09-24T12:56:47.881Z,1.17
2018-09-24T12:59:20.689Z,1.00
2018-09-24T13:01:53.487Z,1.03
2018-09-24T13:04:26.340Z,0.60
2018-09-24T13:06:59.205Z,0.80
2018-09-24T13:09:32.066Z,1.20
2018-09-24T13:12:04.812Z,1.37
2018-09-24T13:14:37.499Z,1.10
2018-09-24T13:17:10.213Z,0.97
2018-09-24T13:19:42.978Z,0.90
2018-09-24T13:22:16.201Z,0.90
2018-09-24T13:24:48.993Z,1.30
2018-09-24T13:27:21.688Z,0.90
2018-09-24T13:29:54.501Z,1.47
2018-09-24T13:32:27.388Z,1.33
2018-09-24T13:35:00.187Z,1.10
2018-09-24T13:37:33.006Z,1.13
2018-09-24T13:40:05.842Z,0.77
2018-09-24T13:42:38.665Z,1.20
2018-09-24T13:45:11.554Z,1.57
2018-09-24T13:47:44.497Z,1.40
2018-09-24T13:50:17.478Z,1.20
2018-09-24T13:52:50.185Z,1.50
2018-09-24T13:55:23.088Z,1.07
2018-09-24T13:57:55.970Z,0.90
2018-09-24T14:00:28.824Z,1.30
2018-09-24T14:03:01.615Z,1.27
2018-09-24T14:05:34.307Z,1.00
2018-09-24T14:08:07.201Z,1.10
2018-09-24T14:10:40.055Z,1.03
2018-09-24T14:13:13.082Z,0.80
2018-09-24T14:15:45.780Z,1.20
2018-09-24T14:18:18.664Z,0.90
2018-09-24T14:20:51.485Z,1.30
2018-09-24T14:23:24.290Z,1.87
2018-09-24T14:25:57.176Z,1.10
2018-09-24T14:28:30.018Z,1.03
2018-09-24T14:31:02.879Z,1.23
2018-09-24T14:33:35.498Z,1.10
2018-09-24T14:36:08.425Z,1.33
2018-09-24T14:38:41.267Z,1.30
2018-09-24T14:41:14.642Z,1.23
2018-09-24T14:43:47.625Z,0.77
2018-09-24T14:46:20.547Z,0.97
2018-09-24T14:48:53.342Z,1.00
2018-09-24T14:51:26.018Z,0.90
2018-09-24T14:53:59.042Z,1.10
2018-09-24T14:56:31.748Z,0.77
2018-09-24T14:59:04.669Z,1.70
2018-09-24T15:01:37.633Z,1.00
2018-09-24T15:04:10.451Z,0.90
2018-09-24T15:06:43.218Z,0.73
2018-09-24T15:09:16.134Z,0.80
2018-09-24T15:11:48.965Z,0.90
2018-09-24T15:14:22.009Z,0.93
2018-09-24T15:16:54.838Z,0.97
2018-09-24T15:19:27.909Z,0.80
2018-09-24T15:22:00.735Z,1.10
2018-09-24T15:24:33.565Z,0.80
2018-09-24T15:27:06.465Z,1.10
2018-09-24T15:29:39.301Z,1.00
2018-09-24T15:32:12.146Z,1.27
2018-09-24T15:34:44.965Z,0.53
2018-09-24T15:37:17.936Z,1.30
2018-09-24T15:39:50.841Z,0.83
2018-09-24T15:42:23.931Z,1.27
2018-09-24T15:44:56.805Z,1.00
2018-09-24T15:47:29.651Z,0.97
2018-09-24T15:50:02.736Z,1.60
2018-09-24T15:52:35.448Z,1.17
2018-09-24T15:55:08.249Z,1.30
2018-09-24T15:57:41.159Z,1.00
2018-09-24T16:00:14.254Z,1.10
2018-09-24T16:02:47.049Z,1.20
2018-09-24T16:05:19.858Z,0.90
2018-09-24T16:07:52.917Z,1.00
2018-09-24T16:10:36.141Z,1.10
2018-09-24T16:13:08.865Z,1.10
2018-09-24T16:15:41.621Z,0.70
2018-09-24T16:18:14.364Z,1.07
2018-09-24T16:20:47.176Z,0.77
2018-09-24T16:23:19.904Z,0.97
2018-09-24T16:25:52.905Z,1.03
2018-09-24T16:28:25.601Z,0.77
2018-09-24T16:30:58.357Z,0.70
2018-09-24T16:33:31.670Z,0.97
2018-09-24T16:36:04.328Z,0.60
2018-09-24T16:38:36.882Z,0.60
2018-09-24T16:41:09.646Z,0.90
2018-09-24T16:43:42.353Z,0.97
2018-09-24T16:46:15.385Z,0.70
2018-09-24T16:48:48.329Z,0.80
2018-09-24T16:51:21.165Z,0.80
2018-09-24T16:53:54.023Z,0.73
2018-09-24T16:56:26.785Z,0.67
2018-09-24T16:58:59.531Z,1.03
2018-09-24T17:01:32.195Z,0.70
2018-09-24T17:04:05.103Z,0.80
2018-09-24T17:06:37.884Z,0.80
2018-09-24T17:09:12.745Z,0.83
2018-09-24T17:11:45.446Z,1.33
2018-09-24T17:14:18.251Z,0.90
2018-09-24T17:16:51.168Z,0.70
2018-09-24T17:19:23.917Z,0.90
2018-09-24T17:21:56.630Z,1.07
2018-09-24T17:24:29.506Z,0.77
2018-09-24T17:27:02.295Z,1.17
2018-09-24T17:29:35.067Z,1.00
2018-09-24T17:32:07.789Z,0.70
2018-09-24T17:34:40.630Z,0.97
2018-09-24T17:37:13.378Z,0.80
2018-09-24T17:39:46.069Z,0.70
2018-09-24T17:42:18.837Z,1.00
2018-09-24T17:44:51.429Z,1.00
2018-09-24T17:47:24.142Z,0.93
2018-09-24T17:49:56.941Z,1.10
2018-09-24T17:52:29.625Z,0.90
2018-09-24T17:55:02.282Z,0.87
2018-09-24T17:57:35.046Z,1.00
2018-09-24T18:00:07.708Z,0.90
2018-09-24T18:02:40.507Z,0.77
2018-09-24T18:05:13.336Z,1.13
2018-09-24T18:07:46.062Z,0.90
2018-09-24T18:10:18.796Z,1.00
2018-09-24T18:12:51.533Z,0.93
2018-09-24T18:15:24.267Z,0.90
2018-09-24T18:17:57.016Z,1.20
2018-09-24T18:20:29.979Z,1.17
2018-09-24T18:23:02.786Z,0.80
2018-09-24T18:25:36.274Z,1.20
2018-09-24T18:28:09.091Z,1.20
2018-09-24T18:30:41.904Z,2.00
2018-09-24T18:33:15.438Z,1.77
2018-09-24T18:35:48.340Z,1.50
2018-09-24T18:38:21.129Z,1.63
2018-09-24T18:40:53.842Z,1.10
2018-09-24T18:43:26.905Z,1.67
2018-09-24T18:45:59.641Z,1.60
2018-09-24T18:48:32.460Z,1.90
2018-09-24T18:51:05.169Z,1.43
2018-09-24T18:53:37.889Z,1.30
2018-09-24T18:56:10.632Z,1.67
2018-09-24T18:58:43.369Z,1.23
2018-09-24T19:01:16.190Z,1.20
2018-09-24T19:03:49.517Z,1.67
2018-09-24T19:06:22.398Z,1.60
2018-09-24T19:08:55.222Z,1.30
2018-09-24T19:11:28.225Z,1.50
2018-09-24T19:14:00.822Z,1.03
2018-09-24T19:16:33.497Z,0.97
2018-09-24T19:19:06.241Z,1.23
2018-09-24T19:21:38.986Z,0.90
2018-09-24T19:24:11.677Z,1.30
2018-09-24T19:26:44.421Z,1.67
2018-09-24T19:29:17.147Z,0.90
2018-09-24T19:31:49.912Z,1.00
2018-09-24T19:34:22.665Z,1.20
2018-09-24T19:36:55.387Z,1.13
2018-09-24T19:39:28.193Z,0.80
2018-09-24T19:42:00.907Z,1.43
2018-09-24T19:44:33.827Z,0.70
2018-09-24T19:47:06.583Z,0.80
2018-09-24T19:49:39.301Z,0.80
2018-09-24T19:52:12.059Z,0.90
2018-09-24T19:54:44.901Z,1.20
2018-09-24T19:57:17.657Z,1.10
2018-09-24T19:59:50.345Z,1.00
2018-09-24T20:02:23.260Z,0.93
2018-09-24T20:04:56.317Z,1.10
2018-09-24T20:07:29.073Z,1.20
2018-09-24T20:10:01.848Z,1.57
2018-09-24T20:12:34.593Z,1.50
2018-09-24T20:15:07.261Z,1.37
2018-09-24T20:17:40.258Z,1.63
2018-09-24T20:20:13.258Z,1.57
2018-09-24T20:22:46.044Z,1.50
2018-09-24T20:25:18.849Z,1.70
2018-09-24T20:27:51.623Z,1.13
2018-09-24T20:30:24.316Z,1.07
2018-09-24T20:32:57.360Z,1.13
2018-09-24T20:35:30.295Z,1.10
2018-09-24T20:38:13.723Z,1.03
2018-09-24T20:40:46.606Z,1.00
2018-09-24T20:43:19.482Z,1.10
2018-09-24T20:45:52.349Z,1.07
2018-09-24T20:48:25.077Z,1.47
2018-09-24T20:50:57.926Z,1.30
2018-09-24T20:53:30.794Z,1.30
2018-09-24T20:56:03.832Z,1.50
2018-09-24T20:58:36.666Z,1.77
2018-09-24T21:01:09.734Z,0.87
2018-09-24T21:03:42.761Z,1.17
2018-09-24T21:06:15.702Z,1.37
2018-09-24T21:08:48.432Z,1.47
2018-09-24T21:11:21.249Z,0.90
2018-09-24T21:13:54.054Z,1.30
2018-09-24T21:16:26.841Z,1.17
2018-09-24T21:18:59.633Z,0.90
2018-09-24T21:21:32.380Z,0.90
2018-09-24T21:24:05.159Z,0.90
2018-09-24T21:26:38.289Z,0.90
2018-09-24T21:29:11.173Z,0.60
2018-09-24T21:31:43.969Z,0.73
2018-09-24T21:34:16.758Z,0.90
2018-09-24T21:36:49.902Z,0.90
2018-09-24T21:39:22.685Z,0.73
2018-09-24T21:41:55.513Z,0.70
2018-09-24T21:44:28.355Z,1.13
2018-09-24T21:47:01.352Z,0.80
2018-09-24T21:49:34.269Z,1.00
2018-09-24T21:52:07.152Z,0.97
2018-09-24T21:54:39.996Z,1.03
2018-09-24T21:57:12.849Z,0.67
2018-09-24T21:59:46.177Z,0.90
2018-09-24T22:02:19.240Z,0.73
2018-09-24T22:04:52.142Z,0.93
2018-09-24T22:07:24.991Z,0.70
2018-09-24T22:09:57.812Z,0.90
2018-09-24T22:12:30.557Z,0.67
2018-09-24T22:15:03.317Z,0.87
2018-09-24T22:17:36.311Z,0.87
2018-09-24T22:20:09.026Z,0.83
2018-09-24T22:22:42.176Z,1.10
2018-09-24T22:25:15.212Z,0.80
2018-09-24T22:27:48.134Z,0.80
2018-09-24T22:30:21.000Z,0.80
2018-09-24T22:32:53.825Z,0.90
2018-09-24T22:35:26.611Z,0.80
2018-09-24T22:37:59.366Z,0.90
2018-09-24T22:40:32.357Z,0.80
2018-09-24T22:43:05.384Z,0.70
2018-09-24T22:45:38.453Z,0.60
2018-09-24T22:48:11.320Z,1.00
2018-09-24T22:50:44.256Z,0.80
2018-09-24T22:53:17.286Z,0.70
2018-09-24T22:55:50.061Z,0.87
2018-09-24T22:58:22.950Z,0.83
2018-09-24T23:00:55.817Z,0.80
2018-09-24T23:03:28.640Z,1.00
2018-09-24T23:06:01.481Z,0.90
2018-09-24T23:08:34.260Z,1.00
2018-09-24T23:11:07.556Z,1.00
2018-09-24T23:13:40.259Z,0.90
2018-09-24T23:16:12.861Z,0.77
2018-09-24T23:18:45.613Z,0.80
2018-09-24T23:21:18.250Z,0.80
2018-09-24T23:23:50.868Z,0.77
2018-09-24T23:26:23.591Z,0.70
2018-09-24T23:28:56.464Z,0.70
2018-09-24T23:31:29.196Z,0.80
2018-09-24T23:34:01.977Z,0.80
2018-09-24T23:36:34.845Z,0.67
2018-09-24T23:39:07.673Z,0.77
2018-09-24T23:41:40.353Z,0.70
2018-09-24T23:44:13.101Z,0.80
2018-09-24T23:46:45.720Z,0.87
2018-09-24T23:49:18.481Z,0.70
2018-09-24T23:51:51.174Z,0.60
2018-09-24T23:54:23.845Z,0.80
2018-09-24T23:56:56.567Z,0.70
2018-09-24T23:59:29.230Z,0.70
